Time;durP1;ratioP1;P1;durP2;ratioP2;P2;SDS_P1;SDS_P2;PMS_P1;PMS_P2;Temp;Humidity;BMP_temperature;BMP_pressure;BME280_temperature;BME280_humidity;BME280_pressure;Samples;Min_cycle;Max_cycle;Signal;HPM_P1;HPM_P2
2021/07/17 04:31:30;;;;;;;46.83;26.67;;;16.80;99.90;;;;;;5639031;23;20583;-78
2021/07/17 04:33:55;;;;;;;42.00;26.63;;;16.90;99.90;;;;;;4954544;28;20896;-78
2021/07/17 04:36:21;;;;;;;40.90;25.67;;;16.80;99.90;;;;;;4955940;28;20432;-78
2021/07/17 04:38:47;;;;;;;40.03;25.43;;;16.90;99.90;;;;;;4953813;29;20192;-78
2021/07/17 04:41:12;;;;;;;42.73;26.10;;;16.90;99.90;;;;;;4946201;28;20702;-78
2021/07/17 04:43:38;;;;;;;35.90;23.73;;;16.90;99.90;;;;;;4938609;29;20205;-78
2021/07/17 04:46:04;;;;;;;42.23;25.60;;;16.90;99.90;;;;;;4937302;29;20192;-78
2021/07/17 04:48:30;;;;;;;40.40;24.30;;;16.90;99.90;;;;;;4934020;29;20801;-78
2021/07/17 04:50:55;;;;;;;39.03;24.53;;;16.90;99.90;;;;;;4919418;29;20205;-78
2021/07/17 04:53:21;;;;;;;38.80;25.87;;;17.00;99.90;;;;;;4937161;29;20284;-78
2021/07/17 04:55:47;;;;;;;43.10;24.40;;;17.00;99.90;;;;;;4938290;29;20542;-78
2021/07/17 04:58:12;;;;;;;37.90;26.70;;;17.00;99.90;;;;;;4925989;29;20185;-78
2021/07/17 05:00:38;;;;;;;36.10;24.70;;;17.00;99.90;;;;;;4938188;29;20201;-78
2021/07/17 05:03:04;;;;;;;39.83;23.90;;;17.00;99.90;;;;;;4932054;29;20209;-78
2021/07/17 05:05:30;;;;;;;36.60;24.27;;;17.10;99.90;;;;;;4938734;29;20170;-79
2021/07/17 05:07:55;;;;;;;42.40;24.83;;;17.10;99.90;;;;;;4936143;29;20199;-78
2021/07/17 05:10:23;;;;;;;42.53;24.43;;;17.20;99.90;;;;;;4946522;29;20218;-78
2021/07/17 05:12:50;;;;;;;40.53;24.10;;;17.20;99.90;;;;;;4923032;29;20188;-78
2021/07/17 05:15:16;;;;;;;34.37;22.10;;;17.20;99.90;;;;;;4939911;29;20801;-78
2021/07/17 05:17:42;;;;;;;32.23;22.07;;;17.20;99.90;;;;;;4931392;29;20437;-79
2021/07/17 05:20:09;;;;;;;40.77;25.53;;;17.20;99.90;;;;;;4937046;29;20453;-78
2021/07/17 05:22:35;;;;;;;33.53;24.23;;;17.20;99.90;;;;;;4937663;29;20980;-78
2021/07/17 05:25:02;;;;;;;38.73;23.20;;;17.20;99.90;;;;;;4937272;29;20440;-78
2021/07/17 05:27:28;;;;;;;36.90;21.87;;;17.30;99.90;;;;;;4938252;29;20929;-78
2021/07/17 05:29:53;;;;;;;32.50;22.43;;;17.30;99.90;;;;;;4932826;29;20445;-78
2021/07/17 05:32:19;;;;;;;35.90;22.53;;;17.40;99.90;;;;;;4948925;29;20758;-79
2021/07/17 05:34:46;;;;;;;41.87;23.50;;;17.40;99.90;;;;;;4935196;29;20185;-79
2021/07/17 05:37:12;;;;;;;27.90;20.90;;;17.40;99.90;;;;;;4937444;29;20170;-78
2021/07/17 05:39:38;;;;;;;34.33;22.07;;;17.50;99.90;;;;;;4935942;29;20441;-78
2021/07/17 05:42:05;;;;;;;35.30;23.00;;;17.50;99.90;;;;;;4935372;29;20225;-78
2021/07/17 05:44:32;;;;;;;37.77;22.73;;;17.50;99.90;;;;;;4936073;29;20848;-78
2021/07/17 05:46:57;;;;;;;32.70;21.67;;;17.50;99.90;;;;;;4930774;29;20812;-79
2021/07/17 05:49:23;;;;;;;25.33;18.60;;;17.60;99.90;;;;;;4918680;29;20530;-79
2021/07/17 05:51:49;;;;;;;30.40;21.00;;;17.60;99.90;;;;;;4929839;29;20284;-78
2021/07/17 05:54:22;;;;;;;30.17;20.20;;;17.60;99.90;;;;;;4937008;29;20185;-77
2021/07/17 05:56:49;;;;;;;33.83;20.57;;;17.60;99.90;;;;;;4937401;28;20436;-78
2021/07/17 05:59:16;;;;;;;37.27;21.50;;;17.60;99.90;;;;;;4937934;29;20891;-77
2021/07/17 06:01:42;;;;;;;34.57;20.70;;;17.70;99.90;;;;;;4932480;29;20496;-77
2021/07/17 06:04:08;;;;;;;32.23;22.10;;;17.70;99.90;;;;;;4916372;29;21017;-78
2021/07/17 06:06:34;;;;;;;32.60;20.47;;;17.70;99.90;;;;;;4918389;29;20228;-79
2021/07/17 06:09:02;;;;;;;31.67;20.67;;;17.70;99.90;;;;;;4930256;29;20200;-79
2021/07/17 06:11:28;;;;;;;29.43;21.30;;;17.70;99.90;;;;;;4953969;28;20197;-79
2021/07/17 06:13:53;;;;;;;34.23;20.47;;;17.70;99.90;;;;;;4938277;29;21017;-79
2021/07/17 06:16:24;;;;;;;29.00;20.17;;;17.70;99.90;;;;;;4935495;29;20187;-79
2021/07/17 06:18:52;;;;;;;32.90;20.37;;;17.70;99.90;;;;;;4934713;29;20186;-77
2021/07/17 06:21:22;;;;;;;34.47;21.60;;;17.80;99.90;;;;;;4935818;29;20946;-78
2021/07/17 06:23:48;;;;;;;26.93;20.70;;;17.90;99.90;;;;;;4937014;29;20469;-79
2021/07/17 06:26:15;;;;;;;32.53;20.40;;;18.00;99.90;;;;;;4921603;29;20450;-80
2021/07/17 06:28:41;;;;;;;23.97;18.37;;;18.00;99.90;;;;;;4926630;29;20440;-79
2021/07/17 06:31:06;;;;;;;25.00;19.00;;;18.00;99.90;;;;;;4937976;29;20456;-79
2021/07/17 06:33:34;;;;;;;30.63;18.97;;;18.10;99.90;;;;;;4932013;29;20268;-79
2021/07/17 06:36:00;;;;;;;25.70;17.87;;;18.10;99.90;;;;;;4940050;29;20646;-79
2021/07/17 06:38:25;;;;;;;23.37;17.53;;;18.20;99.90;;;;;;4936406;29;20538;-79
2021/07/17 06:40:51;;;;;;;28.93;20.37;;;18.20;99.90;;;;;;4935547;29;20813;-79
2021/07/17 06:43:16;;;;;;;25.80;18.67;;;18.20;99.90;;;;;;4938171;29;20299;-79
2021/07/17 06:45:42;;;;;;;23.20;16.97;;;18.30;99.90;;;;;;4930136;29;20182;-79
2021/07/17 06:48:09;;;;;;;27.87;17.83;;;18.30;99.90;;;;;;4933694;29;20272;-79
2021/07/17 06:50:35;;;;;;;26.87;17.33;;;18.40;99.90;;;;;;4936014;29;20205;-79
2021/07/17 06:53:00;;;;;;;27.97;18.97;;;18.40;99.90;;;;;;4936568;29;20484;-79
2021/07/17 06:55:26;;;;;;;29.77;19.13;;;18.40;99.90;;;;;;4936025;29;20189;-79
2021/07/17 06:57:52;;;;;;;26.00;18.50;;;18.40;99.90;;;;;;4936031;29;20201;-79
2021/07/17 07:00:18;;;;;;;24.57;18.40;;;18.30;99.90;;;;;;4932991;29;20442;-79
2021/07/17 07:02:44;;;;;;;29.03;18.03;;;18.30;99.90;;;;;;4936808;29;20212;-79
2021/07/17 07:05:11;;;;;;;31.03;18.03;;;18.30;99.90;;;;;;4936440;29;20422;-79
2021/07/17 07:07:38;;;;;;;23.80;17.97;;;18.40;99.90;;;;;;4936128;29;20189;-79
2021/07/17 07:10:07;;;;;;;27.00;18.60;;;18.40;99.90;;;;;;4937448;29;20924;-79
2021/07/17 07:12:36;;;;;;;32.50;18.50;;;18.40;99.90;;;;;;4925713;29;20548;-79
2021/07/17 07:15:04;;;;;;;28.23;18.40;;;18.40;99.90;;;;;;4917424;29;20493;-79
2021/07/17 07:17:30;;;;;;;30.23;18.53;;;18.40;99.90;;;;;;4918776;29;20445;-79
2021/07/17 07:19:55;;;;;;;36.90;19.33;;;18.50;99.90;;;;;;4917320;29;20702;-78
2021/07/17 07:22:21;;;;;;;25.83;19.10;;;18.50;99.90;;;;;;4922319;29;20205;-78
2021/07/17 07:24:47;;;;;;;26.90;18.63;;;18.60;99.90;;;;;;4938455;29;20217;-80
2021/07/17 07:27:12;;;;;;;28.43;18.83;;;18.70;99.90;;;;;;4938114;29;20181;-77
2021/07/17 07:29:38;;;;;;;30.63;19.60;;;18.80;99.90;;;;;;4935759;29;20461;-78
2021/07/17 07:32:04;;;;;;;27.87;19.40;;;18.90;99.90;;;;;;4931600;29;20288;-77
2021/07/17 07:34:29;;;;;;;30.33;18.50;;;19.00;99.90;;;;;;4921068;29;20193;-77
2021/07/17 07:36:55;;;;;;;27.20;18.73;;;19.00;99.90;;;;;;4916078;28;20209;-78
2021/07/17 07:39:21;;;;;;;27.87;18.77;;;19.00;99.90;;;;;;4921401;29;20193;-78
2021/07/17 07:41:47;;;;;;;30.73;17.40;;;19.00;99.90;;;;;;4920111;29;20727;-78
2021/07/17 07:44:12;;;;;;;30.27;18.63;;;18.90;99.90;;;;;;4927807;29;20460;-79
2021/07/17 07:46:38;;;;;;;28.50;18.30;;;18.80;99.90;;;;;;4939536;29;20645;-78
2021/07/17 07:49:09;;;;;;;28.13;17.57;;;18.80;99.90;;;;;;4929186;29;20217;-78
2021/07/17 07:51:34;;;;;;;25.30;18.30;;;18.80;99.90;;;;;;4950262;29;20589;-78
2021/07/17 07:54:00;;;;;;;34.07;20.60;;;18.80;99.90;;;;;;4936983;29;21005;-78
2021/07/17 07:56:26;;;;;;;26.27;18.53;;;18.70;99.90;;;;;;4930245;29;20219;-78
2021/07/17 07:58:52;;;;;;;31.13;18.37;;;18.70;99.90;;;;;;4938396;29;20173;-77
2021/07/17 08:01:18;;;;;;;28.27;19.33;;;18.70;99.90;;;;;;4936829;29;20623;-78
2021/07/17 08:03:43;;;;;;;24.43;18.43;;;18.70;99.90;;;;;;4938595;29;20213;-78
2021/07/17 08:06:09;;;;;;;28.27;18.83;;;18.70;99.90;;;;;;4932950;29;20643;-78
2021/07/17 08:08:35;;;;;;;26.70;18.90;;;18.70;99.90;;;;;;4919850;29;20190;-79
2021/07/17 08:11:01;;;;;;;30.23;19.47;;;18.60;99.90;;;;;;4920266;29;20201;-78
2021/07/17 08:13:27;;;;;;;31.17;19.53;;;18.60;99.90;;;;;;4921280;29;20182;-78
2021/07/17 08:15:54;;;;;;;31.43;19.13;;;18.50;99.90;;;;;;4924730;29;20448;-78
2021/07/17 08:18:20;;;;;;;27.43;18.17;;;18.50;99.90;;;;;;4935256;29;20237;-79
2021/07/17 08:20:46;;;;;;;31.27;21.10;;;18.60;99.90;;;;;;4939568;29;20433;-78
2021/07/17 08:23:12;;;;;;;27.67;20.53;;;18.60;99.90;;;;;;4925255;29;20222;-78
2021/07/17 08:25:38;;;;;;;23.53;18.53;;;18.70;99.90;;;;;;4920072;29;20418;-78
2021/07/17 08:28:04;;;;;;;37.07;20.23;;;18.70;99.90;;;;;;4927059;29;20182;-78
2021/07/17 08:30:37;;;;;;;25.17;17.87;;;18.80;99.90;;;;;;4937880;29;20196;-78
2021/07/17 08:33:03;;;;;;;26.57;18.07;;;18.90;99.90;;;;;;4927186;29;20461;-78
2021/07/17 08:35:29;;;;;;;28.13;19.30;;;18.90;99.90;;;;;;4918454;29;20524;-78
2021/07/17 08:37:55;;;;;;;29.47;19.43;;;19.00;99.90;;;;;;4922379;29;20441;-78
2021/07/17 08:40:21;;;;;;;23.57;18.07;;;19.10;99.90;;;;;;4937575;29;20807;-79
2021/07/17 08:42:50;;;;;;;29.33;19.87;;;19.10;99.90;;;;;;4941024;29;20205;-78
2021/07/17 08:45:17;;;;;;;26.47;17.60;;;19.30;99.90;;;;;;4940797;29;20436;-78
2021/07/17 08:47:44;;;;;;;32.40;17.30;;;19.30;99.90;;;;;;4937631;29;20944;-78
2021/07/17 08:50:23;;;;;;;25.67;18.53;;;19.40;99.90;;;;;;4933303;29;20444;-79
2021/07/17 08:52:53;;;;;;;26.27;18.00;;;19.40;99.90;;;;;;4919509;29;20830;-79
2021/07/17 08:55:19;;;;;;;25.83;15.63;;;19.60;99.90;;;;;;4936294;29;20508;-79
2021/07/17 08:57:45;;;;;;;20.67;16.50;;;19.80;99.90;;;;;;4942595;29;20413;-79
2021/07/17 09:00:27;;;;;;;23.53;16.50;;;20.00;99.90;;;;;;4936689;29;20452;-79
2021/07/17 09:02:59;;;;;;;28.20;17.13;;;20.20;99.90;;;;;;4937381;29;20609;-78
2021/07/17 09:05:27;;;;;;;20.63;14.40;;;20.40;99.90;;;;;;4942507;29;20923;-79
2021/07/17 09:07:54;;;;;;;27.80;14.60;;;20.40;99.90;;;;;;4945673;29;20477;-78
2021/07/17 09:10:33;;;;;;;27.97;15.03;;;20.50;99.90;;;;;;4937663;29;20433;-79
2021/07/17 09:13:24;;;;;;;23.50;17.37;;;20.50;99.90;;;;;;4938254;29;21000;-79
2021/07/17 09:15:59;;;;;;;21.97;16.30;;;20.30;99.90;;;;;;4935109;29;20966;-79
2021/07/17 09:18:40;;;;;;;24.87;16.87;;;20.20;99.90;;;;;;4936347;29;20786;-78
2021/07/17 09:21:27;;;;;;;27.30;17.70;;;20.20;99.90;;;;;;4936690;29;20472;-78
2021/07/17 09:23:55;;;;;;;26.03;17.53;;;20.20;99.90;;;;;;4937454;29;20469;-78
2021/07/17 09:26:24;;;;;;;22.97;16.50;;;20.20;99.90;;;;;;4940104;29;20787;-78
2021/07/17 09:29:08;;;;;;;27.70;18.30;;;20.10;99.90;;;;;;4937428;29;20429;-79
2021/07/17 09:31:49;;;;;;;19.90;15.77;;;20.00;99.90;;;;;;4938940;29;20479;-79
2021/07/17 09:34:17;;;;;;;21.70;15.37;;;20.00;99.90;;;;;;4935787;29;20510;-79
2021/07/17 09:36:55;;;;;;;41.23;17.37;;;19.90;99.90;;;;;;4941258;29;20426;-79
2021/07/17 09:39:32;;;;;;;27.33;16.57;;;19.90;99.90;;;;;;4921346;29;20485;-79
2021/07/17 09:42:06;;;;;;;20.40;15.43;;;19.90;99.90;;;;;;4920168;29;20444;-78
2021/07/17 09:44:33;;;;;;;26.87;16.83;;;19.80;99.90;;;;;;4939655;29;21096;-79
2021/07/17 09:46:59;;;;;;;27.53;16.57;;;19.80;99.90;;;;;;4940776;29;20464;-79
2021/07/17 09:49:26;;;;;;;22.57;16.90;;;19.90;99.90;;;;;;4931159;29;20437;-79
2021/07/17 09:52:12;;;;;;;23.90;17.10;;;19.90;99.90;;;;;;4939363;29;20476;-79
2021/07/17 09:55:01;;;;;;;28.87;17.73;;;19.90;99.90;;;;;;4929046;29;20503;-79
2021/07/17 09:57:31;;;;;;;24.37;17.37;;;19.80;99.90;;;;;;4920043;29;20494;-79
2021/07/17 10:00:11;;;;;;;22.97;17.90;;;19.80;99.90;;;;;;4928741;29;20445;-79
2021/07/17 10:02:39;;;;;;;26.93;17.33;;;19.90;99.90;;;;;;4937331;29;20484;-79
2021/07/17 10:05:06;;;;;;;28.27;18.20;;;20.10;99.90;;;;;;4936092;28;20440;-80
2021/07/17 10:07:32;;;;;;;25.77;17.00;;;20.20;99.90;;;;;;4923519;29;20462;-79
2021/07/17 10:09:58;;;;;;;22.47;17.50;;;20.50;99.90;;;;;;4920559;29;20429;-79
2021/07/17 10:12:34;;;;;;;27.03;17.70;;;20.80;99.90;;;;;;4920447;29;20205;-79
2021/07/17 10:15:05;;;;;;;23.90;17.73;;;21.30;99.90;;;;;;4922255;29;20441;-79
2021/07/17 10:17:35;;;;;;;23.20;16.93;;;21.30;99.90;;;;;;4940321;29;20496;-80
2021/07/17 10:20:09;;;;;;;22.40;17.67;;;21.40;99.90;;;;;;4939763;29;20453;-79
2021/07/17 10:22:37;;;;;;;27.50;16.53;;;21.50;99.90;;;;;;4938764;29;20457;-79
2021/07/17 10:25:04;;;;;;;23.70;16.80;;;21.60;99.90;;;;;;4936614;29;20441;-78
2021/07/17 10:27:30;;;;;;;20.03;16.30;;;21.50;99.90;;;;;;4938306;29;20807;-79
2021/07/17 10:29:57;;;;;;;20.40;16.60;;;21.70;99.90;;;;;;4937717;29;20512;-80
2021/07/17 10:32:23;;;;;;;23.23;16.93;;;21.80;99.90;;;;;;4935309;29;20539;-79
2021/07/17 10:34:50;;;;;;;26.40;17.50;;;21.80;99.90;;;;;;4936925;29;20421;-78
2021/07/17 10:37:17;;;;;;;20.83;17.13;;;21.50;99.90;;;;;;4935101;29;20225;-79
2021/07/17 10:40:08;;;;;;;19.20;15.63;;;21.60;99.90;;;;;;4937536;29;20453;-78
2021/07/17 10:42:36;;;;;;;22.80;16.40;;;21.50;99.90;;;;;;4935658;29;20450;-78
2021/07/17 10:45:04;;;;;;;19.60;15.23;;;21.60;99.90;;;;;;4941819;29;20433;-79
2021/07/17 10:47:45;;;;;;;20.83;14.83;;;21.60;99.90;;;;;;4948698;29;20418;-78
2021/07/17 10:50:13;;;;;;;19.17;14.90;;;21.70;99.90;;;;;;4939579;29;20430;-79
2021/07/17 10:52:44;;;;;;;20.43;14.80;;;21.70;99.90;;;;;;4943975;29;20413;-79
2021/07/17 10:55:30;;;;;;;19.43;14.67;;;21.90;99.90;;;;;;4923500;29;20504;-79
2021/07/17 10:58:00;;;;;;;20.43;14.93;;;22.00;99.90;;;;;;4922425;29;20469;-79
2021/07/17 11:00:47;;;;;;;22.20;15.23;;;22.00;99.90;;;;;;4923382;29;20421;-79
2021/07/17 11:03:22;;;;;;;18.40;15.00;;;22.00;99.90;;;;;;4941764;29;20465;-79
2021/07/17 11:05:51;;;;;;;21.87;17.53;;;22.20;99.90;;;;;;4921870;29;20487;-79
2021/07/17 11:08:28;;;;;;;17.10;15.27;;;22.20;99.90;;;;;;4917818;29;20418;-79
2021/07/17 11:10:54;;;;;;;22.87;15.53;;;22.10;99.90;;;;;;4931697;29;20493;-80
2021/07/17 11:13:31;;;;;;;23.80;16.23;;;22.10;99.90;;;;;;4939818;29;20515;-79
2021/07/17 11:15:57;;;;;;;24.53;16.03;;;22.10;99.90;;;;;;4937334;29;20193;-79
2021/07/17 11:18:23;;;;;;;19.63;15.40;;;22.20;99.90;;;;;;4931515;29;20922;-80
2021/07/17 11:20:50;;;;;;;19.53;14.83;;;22.30;99.90;;;;;;4939943;29;20217;-80
2021/07/17 11:23:18;;;;;;;19.83;14.27;;;22.30;99.90;;;;;;4942314;29;20471;-80
2021/07/17 11:25:58;;;;;;;22.00;14.83;;;22.40;99.90;;;;;;4942669;29;20452;-80
2021/07/17 11:28:54;;;;;;;20.37;15.90;;;22.40;99.90;;;;;;4941227;29;20444;-78
2021/07/17 11:31:33;;;;;;;23.17;15.70;;;22.40;99.90;;;;;;4936066;29;20552;-79
2021/07/17 11:34:16;;;;;;;21.50;15.33;;;22.20;99.90;;;;;;4937150;29;20435;-80
2021/07/17 11:36:44;;;;;;;23.30;14.10;;;22.10;99.90;;;;;;4940435;28;20449;-78
2021/07/17 11:39:28;;;;;;;23.03;14.77;;;22.10;99.90;;;;;;4939233;29;20444;-79
2021/07/17 11:41:55;;;;;;;20.10;15.27;;;22.10;99.90;;;;;;4938762;29;20497;-78
2021/07/17 11:44:32;;;;;;;19.60;15.03;;;22.00;99.90;;;;;;4925612;29;20517;-77
2021/07/17 11:47:07;;;;;;;25.43;16.83;;;22.00;99.90;;;;;;4924834;29;20420;-78
2021/07/17 11:49:35;;;;;;;19.27;15.27;;;21.80;99.90;;;;;;4934855;29;20452;-79
2021/07/17 11:52:04;;;;;;;19.90;15.53;;;21.80;99.90;;;;;;4945840;29;20949;-79
2021/07/17 11:54:35;;;;;;;22.00;15.73;;;21.70;99.90;;;;;;4945306;29;20429;-79
2021/07/17 11:57:08;;;;;;;23.80;17.27;;;21.70;99.90;;;;;;4947369;29;20421;-79
2021/07/17 11:59:35;;;;;;;18.50;14.20;;;21.70;99.90;;;;;;4944913;29;20445;-79
2021/07/17 12:02:14;;;;;;;19.80;14.70;;;21.90;99.90;;;;;;4956054;29;20923;-79
2021/07/17 12:04:46;;;;;;;17.00;14.20;;;22.00;99.90;;;;;;4940902;29;20468;-79
2021/07/17 12:07:15;;;;;;;18.47;15.23;;;21.90;99.90;;;;;;4946045;29;20413;-79
2021/07/17 12:09:46;;;;;;;19.00;15.80;;;21.90;99.90;;;;;;4941569;29;20455;-79
2021/07/17 12:12:32;;;;;;;19.03;14.80;;;21.90;99.90;;;;;;4944971;29;20444;-80
2021/07/17 12:15:08;;;;;;;19.20;15.07;;;21.70;99.90;;;;;;4944945;29;20539;-79
2021/07/17 12:17:35;;;;;;;17.63;14.83;;;21.70;99.90;;;;;;4945081;29;20523;-79
2021/07/17 12:20:08;;;;;;;21.70;14.30;;;21.80;99.90;;;;;;4946402;29;20879;-79
2021/07/17 12:22:35;;;;;;;16.97;15.23;;;21.80;99.90;;;;;;4944735;29;20437;-78
2021/07/17 12:25:19;;;;;;;17.40;14.57;;;21.80;99.90;;;;;;4939983;29;20430;-79
2021/07/17 12:27:54;;;;;;;19.33;14.70;;;22.00;99.90;;;;;;4924987;29;20470;-78
2021/07/17 12:30:22;;;;;;;22.13;15.63;;;22.00;99.90;;;;;;4930830;29;20455;-78
2021/07/17 12:32:47;;;;;;;20.67;15.37;;;22.00;99.90;;;;;;4937244;29;20937;-78
2021/07/17 12:35:21;;;;;;;24.53;15.93;;;22.00;99.90;;;;;;4946542;29;20425;-79
2021/07/17 12:37:47;;;;;;;19.47;15.17;;;21.90;99.90;;;;;;4945552;29;20193;-79
2021/07/17 12:40:13;;;;;;;19.70;16.87;;;22.00;99.90;;;;;;4944652;28;20421;-79
2021/07/17 12:42:49;;;;;;;18.70;15.20;;;22.10;99.90;;;;;;4940146;29;20488;-81
2021/07/17 12:45:20;;;;;;;20.77;15.40;;;22.20;99.90;;;;;;4921338;29;20276;-79
2021/07/17 12:47:52;;;;;;;20.63;14.93;;;22.40;99.90;;;;;;4931790;29;20937;-79
2021/07/17 12:50:26;;;;;;;22.00;15.87;;;22.50;99.90;;;;;;4940003;29;20413;-79
2021/07/17 12:53:28;;;;;;;18.70;14.90;;;22.60;99.90;;;;;;4943843;29;20417;-79
2021/07/17 12:55:54;;;;;;;19.70;14.60;;;22.70;99.90;;;;;;4924059;29;20418;-80
2021/07/17 12:58:23;;;;;;;20.63;15.53;;;22.80;99.90;;;;;;4937804;29;20484;-80
2021/07/17 13:00:49;;;;;;;20.10;14.97;;;22.90;99.90;;;;;;4940924;29;20205;-79
2021/07/17 13:03:15;;;;;;;18.93;14.77;;;23.00;99.90;;;;;;4939619;29;20977;-80
2021/07/17 13:05:51;;;;;;;16.60;14.40;;;22.90;99.90;;;;;;4940874;29;20538;-79
2021/07/17 13:08:27;;;;;;;18.30;15.43;;;22.90;99.90;;;;;;4941683;29;20334;-80
2021/07/17 13:10:55;;;;;;;15.63;13.93;;;23.00;99.90;;;;;;4941309;29;20957;-80
2021/07/17 13:13:29;;;;;;;15.67;14.07;;;23.20;99.90;;;;;;4938657;29;20532;-79
2021/07/17 13:15:57;;;;;;;19.50;15.27;;;23.60;99.90;;;;;;4940279;29;20451;-80
2021/07/17 13:18:25;;;;;;;22.30;13.53;;;23.70;99.90;;;;;;4939475;29;20464;-81
2021/07/17 13:21:04;;;;;;;18.43;14.20;;;23.80;99.90;;;;;;4923979;29;20450;-80
2021/07/17 13:23:57;;;;;;;16.63;14.63;;;23.90;99.90;;;;;;4921266;29;20966;-79
2021/07/17 13:26:31;;;;;;;15.80;14.20;;;23.90;99.90;;;;;;4938163;29;20421;-79
2021/07/17 13:28:59;;;;;;;19.63;14.20;;;23.90;99.90;;;;;;4944962;29;20748;-79
2021/07/17 13:31:34;;;;;;;16.37;13.73;;;23.90;99.90;;;;;;4924509;29;20725;-80
2021/07/17 13:34:13;;;;;;;15.43;13.17;;;23.70;99.90;;;;;;4943395;29;20447;-79
2021/07/17 13:36:57;;;;;;;17.73;13.13;;;23.50;99.90;;;;;;4931984;29;20445;-79
2021/07/17 13:39:33;;;;;;;15.17;12.97;;;23.70;99.90;;;;;;4939570;29;20421;-79
2021/07/17 13:42:09;;;;;;;15.67;12.57;;;23.80;99.90;;;;;;4928238;29;20635;-78
2021/07/17 13:44:39;;;;;;;19.00;13.57;;;24.10;99.90;;;;;;4941562;29;20550;-79
2021/07/17 13:47:23;;;;;;;17.40;12.63;;;24.20;99.90;;;;;;4943718;28;20525;-79
2021/07/17 13:49:49;;;;;;;13.97;12.57;;;24.30;99.90;;;;;;4924921;29;20908;-79
2021/07/17 13:52:35;;;;;;;13.83;11.80;;;24.20;99.90;;;;;;4929946;29;20957;-80
2021/07/17 13:55:06;;;;;;;15.60;13.50;;;24.20;99.90;;;;;;4941105;29;20477;-79
2021/07/17 13:57:37;;;;;;;14.30;12.50;;;24.10;99.90;;;;;;4937201;29;20440;-80
2021/07/17 14:00:12;;;;;;;13.90;12.60;;;23.90;99.90;;;;;;4920258;29;20417;-80
2021/07/17 14:02:38;;;;;;;18.80;12.40;;;23.80;99.90;;;;;;4926627;29;20436;-79
2021/07/17 14:05:10;;;;;;;15.70;12.23;;;23.90;99.90;;;;;;4938342;29;20413;-80
2021/07/17 14:07:36;;;;;;;13.67;12.00;;;23.90;99.90;;;;;;4931437;29;20222;-79
2021/07/17 14:10:03;;;;;;;14.97;12.30;;;23.80;99.90;;;;;;4920436;29;20434;-79
2021/07/17 14:12:29;;;;;;;13.13;11.83;;;23.90;99.90;;;;;;4920492;29;20467;-79
2021/07/17 14:14:56;;;;;;;13.70;11.90;;;23.90;99.90;;;;;;4935656;29;20441;-81
2021/07/17 14:17:25;;;;;;;15.83;12.70;;;23.70;99.90;;;;;;4929206;29;20185;-79
2021/07/17 14:19:55;;;;;;;12.97;11.37;;;23.50;99.90;;;;;;4934650;29;20460;-80
2021/07/17 14:22:26;;;;;;;13.13;11.73;;;23.40;99.90;;;;;;4938068;28;20586;-78
2021/07/17 14:24:53;;;;;;;13.47;11.40;;;23.30;99.90;;;;;;4939622;29;20553;-80
2021/07/17 14:27:24;;;;;;;18.33;12.30;;;23.10;99.90;;;;;;4942148;28;20428;-80
2021/07/17 14:29:55;;;;;;;13.30;12.10;;;22.90;99.90;;;;;;4938469;29;20938;-80
2021/07/17 14:32:21;;;;;;;17.03;12.60;;;22.90;99.90;;;;;;4939748;29;20484;-79
2021/07/17 14:34:48;;;;;;;17.90;15.33;;;22.80;99.90;;;;;;4939810;29;20763;-79
2021/07/17 14:37:16;;;;;;;17.20;14.83;;;22.70;99.90;;;;;;4938237;29;20306;-79
2021/07/17 14:39:41;;;;;;;16.13;13.13;;;22.70;99.90;;;;;;4934111;29;20442;-79
2021/07/17 14:42:18;;;;;;;14.23;12.20;;;22.90;99.90;;;;;;4936156;29;20806;-78
2021/07/17 14:44:47;;;;;;;15.67;12.40;;;23.00;99.90;;;;;;4941629;29;20240;-79
2021/07/17 14:47:30;;;;;;;16.13;13.93;;;23.20;99.90;;;;;;4937221;29;20827;-79
2021/07/17 14:49:57;;;;;;;14.03;12.53;;;23.30;99.90;;;;;;4916382;29;20197;-79
2021/07/17 14:52:24;;;;;;;16.53;14.00;;;23.30;99.90;;;;;;4934499;29;20519;-79
2021/07/17 14:54:52;;;;;;;17.90;14.80;;;23.20;99.90;;;;;;4935846;29;20421;-78
2021/07/17 14:57:17;;;;;;;19.43;13.90;;;23.20;99.90;;;;;;4935618;29;20445;-79
2021/07/17 14:59:43;;;;;;;20.27;15.90;;;23.10;99.90;;;;;;4937343;29;20456;-77
2021/07/17 15:02:10;;;;;;;16.70;13.00;;;23.10;99.90;;;;;;4927867;29;20520;-78
2021/07/17 15:04:36;;;;;;;14.83;13.10;;;23.00;99.90;;;;;;4937725;29;21168;-79
2021/07/17 15:07:02;;;;;;;16.03;13.70;;;23.10;99.90;;;;;;4928798;29;20461;-78
2021/07/17 15:09:27;;;;;;;16.13;13.30;;;23.10;99.90;;;;;;4917520;29;20181;-78
2021/07/17 15:11:53;;;;;;;22.30;14.77;;;23.10;99.90;;;;;;4918461;29;20658;-79
2021/07/17 15:14:22;;;;;;;14.67;12.13;;;23.10;99.90;;;;;;4923040;29;20194;-78
2021/07/17 15:16:47;;;;;;;13.00;11.63;;;23.30;99.90;;;;;;4921407;29;20181;-77
2021/07/17 15:19:14;;;;;;;16.77;14.17;;;23.30;99.90;;;;;;4934758;29;20459;-79
2021/07/17 15:21:40;;;;;;;16.57;13.83;;;23.40;99.90;;;;;;4937095;29;20205;-78
2021/07/17 15:24:06;;;;;;;20.03;14.83;;;23.40;99.90;;;;;;4925026;29;20477;-79
2021/07/17 15:26:37;;;;;;;19.80;11.60;;;23.40;99.90;;;;;;4937553;29;20487;-79
2021/07/17 15:29:04;;;;;;;17.20;13.30;;;23.50;99.90;;;;;;4936489;28;20497;-79
2021/07/17 15:31:31;;;;;;;19.23;13.20;;;23.50;99.90;;;;;;4935834;29;20460;-78
2021/07/17 15:33:56;;;;;;;16.50;14.47;;;23.40;99.90;;;;;;4934621;29;20441;-79
2021/07/17 15:36:22;;;;;;;15.50;12.90;;;23.40;99.90;;;;;;4936515;29;20427;-79
2021/07/17 15:38:48;;;;;;;14.43;12.80;;;23.50;99.90;;;;;;4932309;29;20224;-78
2021/07/17 15:41:13;;;;;;;16.30;14.27;;;23.60;99.90;;;;;;4936153;29;20794;-78
2021/07/17 15:43:43;;;;;;;13.30;11.73;;;23.70;99.90;;;;;;4936131;29;20213;-80
2021/07/17 15:46:09;;;;;;;13.90;12.27;;;23.80;99.90;;;;;;4932414;29;20197;-80
2021/07/17 15:48:35;;;;;;;20.00;12.97;;;24.00;99.90;;;;;;4931344;29;20467;-79
2021/07/17 15:51:01;;;;;;;17.27;12.03;;;23.90;99.90;;;;;;4926888;29;20465;-80
2021/07/17 15:53:27;;;;;;;16.87;15.07;;;23.90;99.90;;;;;;4908337;29;20438;-79
2021/07/17 15:55:53;;;;;;;13.47;12.27;;;23.70;99.90;;;;;;4933335;29;20225;-80
2021/07/17 15:58:18;;;;;;;14.00;12.50;;;23.60;99.90;;;;;;4923456;29;20636;-80
2021/07/17 16:00:44;;;;;;;15.80;12.20;;;23.50;99.90;;;;;;4920379;29;20233;-81
2021/07/17 16:03:10;;;;;;;13.80;12.17;;;23.60;99.90;;;;;;4928169;29;20221;-80
2021/07/17 16:05:36;;;;;;;13.17;12.03;;;23.60;99.90;;;;;;4941623;29;20177;-80
2021/07/17 16:08:03;;;;;;;13.73;12.20;;;23.60;99.90;;;;;;4931771;29;20236;-80
2021/07/17 16:10:29;;;;;;;17.10;11.43;;;23.60;99.90;;;;;;4941202;29;20182;-82
2021/07/17 16:13:12;;;;;;;15.10;13.27;;;23.60;99.90;;;;;;4949165;29;20439;-80
2021/07/17 16:15:39;;;;;;;17.07;13.40;;;23.70;99.90;;;;;;4942341;29;20637;-80
2021/07/17 16:18:06;;;;;;;14.10;12.70;;;23.70;99.90;;;;;;4936462;29;20564;-79
2021/07/17 16:20:47;;;;;;;19.13;12.20;;;23.90;99.90;;;;;;4937084;29;20426;-79
2021/07/17 16:23:17;;;;;;;13.93;12.37;;;24.00;99.90;;;;;;4928655;29;20536;-80
2021/07/17 16:25:49;;;;;;;18.67;12.70;;;24.00;99.90;;;;;;4920962;29;20793;-80
2021/07/17 16:28:17;;;;;;;13.23;11.83;;;24.10;99.90;;;;;;4944762;28;20441;-80
2021/07/17 16:30:43;;;;;;;14.97;12.17;;;24.00;99.90;;;;;;4939814;29;20973;-80
2021/07/17 16:33:09;;;;;;;14.10;12.53;;;24.10;99.90;;;;;;4935776;29;20540;-80
2021/07/17 16:35:42;;;;;;;14.80;12.73;;;24.00;99.90;;;;;;4922820;29;20512;-80
2021/07/17 16:38:23;;;;;;;13.33;12.13;;;23.80;99.90;;;;;;4922635;29;20434;-79
2021/07/17 16:40:52;;;;;;;14.10;12.70;;;23.80;99.90;;;;;;4935869;29;20468;-80
2021/07/17 16:43:19;;;;;;;17.27;13.37;;;23.80;99.90;;;;;;4941137;29;20467;-80
2021/07/17 16:45:44;;;;;;;16.23;13.47;;;23.80;99.90;;;;;;4939318;29;20528;-80
2021/07/17 16:48:10;;;;;;;16.53;13.10;;;23.70;99.90;;;;;;4943406;29;20488;-80
2021/07/17 16:50:36;;;;;;;18.03;12.47;;;23.60;99.90;;;;;;4943085;29;20212;-80
2021/07/17 16:53:02;;;;;;;15.33;13.67;;;23.60;99.90;;;;;;4947725;29;20494;-79
2021/07/17 16:55:28;;;;;;;16.47;14.70;;;23.40;99.90;;;;;;4945171;29;20766;-80
2021/07/17 16:57:55;;;;;;;17.90;15.25;;;23.40;99.90;;;;;;4940328;29;20508;-80
2021/07/17 17:00:21;;;;;;;14.20;12.80;;;23.40;99.90;;;;;;4932504;29;20209;-80
2021/07/17 17:02:46;;;;;;;15.33;13.00;;;23.40;99.90;;;;;;4941867;29;20531;-79
2021/07/17 17:05:12;;;;;;;16.83;14.37;;;23.30;99.90;;;;;;4941913;29;20169;-80
2021/07/17 17:07:55;;;;;;;15.67;14.07;;;23.30;99.90;;;;;;4942048;29;20201;-80
2021/07/17 17:10:23;;;;;;;16.60;14.20;;;23.30;99.90;;;;;;4947248;29;20185;-80